Time;durP1;ratioP1;P1;durP2;ratioP2;P2;SDS_P1;SDS_P2;PMS_P1;PMS_P2;Temp;Humidity;BMP_temperature;BMP_pressure;BME280_temperature;BME280_humidity;BME280_pressure;Samples;Min_cycle;Max_cycle;Signal;HPM_P1;HPM_P2
2022/03/13 00:00:11;;;;;;;26.77;17.70;;;;;;;6.50;36.17;102498.16;5070201;28;20115;-61
2022/03/13 00:02:40;;;;;;;28.73;16.38;;;;;;;6.44;36.35;102499.09;5065255;28;20040;-61
2022/03/13 00:05:14;;;;;;;24.25;16.67;;;;;;;6.36;36.48;102493.97;5070391;28;20489;-61
2022/03/13 00:07:42;;;;;;;31.50;17.88;;;;;;;6.33;36.53;102495.75;5070295;28;20098;-61
2022/03/13 00:10:12;;;;;;;28.48;18.83;;;;;;;6.32;36.63;102492.28;5070276;28;20102;-61
2022/03/13 00:12:39;;;;;;;29.42;17.58;;;;;;;6.27;36.62;102498.41;5068910;28;20493;-61
2022/03/13 00:15:09;;;;;;;27.83;17.35;;;;;;;6.27;36.71;102501.03;5075321;28;20048;-61
2022/03/13 00:17:35;;;;;;;34.20;17.40;;;;;;;6.24;36.70;102501.91;5079505;28;20044;-61
2022/03/13 00:20:05;;;;;;;24.55;16.25;;;;;;;6.23;36.82;102499.34;5083479;28;20476;-61
2022/03/13 00:22:33;;;;;;;26.35;17.20;;;;;;;6.19;36.91;102501.09;5075062;28;20455;-61
2022/03/13 00:25:01;;;;;;;29.73;17.70;;;;;;;6.17;36.93;102503.72;5078373;28;20105;-61
2022/03/13 00:27:31;;;;;;;30.35;17.92;;;;;;;6.16;37.18;102506.34;5081360;28;20094;-61
2022/03/13 00:29:58;;;;;;;28.05;17.45;;;;;;;6.13;37.11;102512.47;5073020;28;20052;-61
2022/03/13 00:32:25;;;;;;;28.88;18.15;;;;;;;6.12;37.10;102507.25;5073281;28;20459;-61
2022/03/13 00:34:52;;;;;;;26.25;17.25;;;;;;;6.09;37.40;102510.75;5073181;28;20041;-61
2022/03/13 00:37:19;;;;;;;25.02;17.35;;;;;;;6.06;37.37;102500.34;5073126;28;20095;-61
2022/03/13 00:39:49;;;;;;;26.92;16.20;;;;;;;6.07;37.32;102506.41;5072942;28;20102;-61
2022/03/13 00:42:17;;;;;;;24.13;16.27;;;;;;;6.02;37.51;102504.72;5073035;28;20044;-61
2022/03/13 00:44:43;;;;;;;23.98;16.27;;;;;;;6.01;37.67;102502.16;5072044;28;20052;-61
2022/03/13 00:47:10;;;;;;;26.92;15.35;;;;;;;6.01;37.55;102500.38;5072869;28;20166;-61
2022/03/13 00:49:37;;;;;;;25.05;15.70;;;;;;;6.00;37.60;102496.06;5072878;28;20044;-61
2022/03/13 00:52:04;;;;;;;23.92;14.90;;;;;;;6.03;37.42;102495.16;5072752;28;20050;-61
2022/03/13 00:54:30;;;;;;;22.35;13.95;;;;;;;6.03;37.35;102490.81;5073017;28;20061;-61
2022/03/13 00:56:57;;;;;;;23.33;14.88;;;;;;;6.04;37.06;102495.16;5072714;28;20102;-61
2022/03/13 00:59:23;;;;;;;23.17;14.13;;;;;;;6.03;37.32;102490.81;5072639;28;20078;-60
2022/03/13 01:01:50;;;;;;;21.67;14.15;;;;;;;6.04;37.09;102492.56;5071723;28;20127;-61
2022/03/13 01:04:18;;;;;;;21.27;13.57;;;;;;;6.04;37.04;102489.94;5072532;28;20072;-62
2022/03/13 01:06:46;;;;;;;24.05;13.82;;;;;;;6.04;36.74;102494.28;5072072;28;20049;-61
2022/03/13 01:09:13;;;;;;;21.83;13.27;;;;;;;6.03;36.84;102495.16;5072597;28;20093;-61
2022/03/13 01:11:40;;;;;;;25.55;14.77;;;;;;;6.03;36.74;102488.22;5072392;28;20051;-61
2022/03/13 01:14:07;;;;;;;20.38;13.45;;;;;;;6.01;36.84;102483.91;5072213;28;20370;-61
2022/03/13 01:16:36;;;;;;;21.35;14.40;;;;;;;6.00;36.79;102479.56;5072269;28;20048;-61
2022/03/13 01:19:04;;;;;;;21.63;13.43;;;;;;;6.01;36.70;102476.94;5070593;28;20495;-61
2022/03/13 01:21:34;;;;;;;22.85;13.93;;;;;;;5.97;36.63;102479.56;5072299;28;20082;-61
2022/03/13 01:24:00;;;;;;;19.58;13.77;;;;;;;5.96;36.52;102477.84;5072134;28;20113;-61
2022/03/13 01:26:28;;;;;;;23.05;13.77;;;;;;;5.97;36.57;102471.75;5072099;28;20068;-61
2022/03/13 01:28:58;;;;;;;21.27;13.40;;;;;;;5.94;36.37;102474.38;5071796;28;20059;-61
2022/03/13 01:31:30;;;;;;;23.20;13.40;;;;;;;5.94;36.50;102466.56;5072012;28;20110;-61
2022/03/13 01:33:57;;;;;;;22.50;13.57;;;;;;;5.92;36.48;102468.28;5071859;28;20048;-61
2022/03/13 01:36:25;;;;;;;21.13;13.05;;;;;;;5.92;36.37;102469.19;5071094;28;20047;-61
2022/03/13 01:38:54;;;;;;;22.17;13.32;;;;;;;5.89;36.45;102467.47;5071275;28;20378;-61
2022/03/13 01:41:22;;;;;;;20.30;13.30;;;;;;;5.89;36.38;102467.47;5071515;28;20044;-61
2022/03/13 01:43:49;;;;;;;20.75;12.60;;;;;;;5.87;36.61;102470.97;5071447;28;20048;-61
2022/03/13 01:46:16;;;;;;;19.60;12.55;;;;;;;5.83;36.35;102470.13;5071533;28;20053;-61
2022/03/13 01:49:12;;;;;;;20.15;12.25;;;;;;;5.81;36.24;102463.19;5079875;28;20048;-61
2022/03/13 01:51:39;;;;;;;20.42;11.93;;;;;;;5.81;36.35;102468.41;5065419;28;20408;-61
2022/03/13 01:54:11;;;;;;;18.00;11.52;;;;;;;5.79;36.44;102463.22;5077414;28;20480;-61
2022/03/13 01:56:39;;;;;;;17.88;11.65;;;;;;;5.81;36.11;102463.19;5072070;28;20495;-61
2022/03/13 01:59:08;;;;;;;15.48;10.77;;;;;;;5.75;36.13;102456.28;5078557;28;20097;-61
2022/03/13 02:01:36;;;;;;;19.20;11.55;;;;;;;5.74;36.05;102454.59;5085045;28;20055;-61
2022/03/13 02:04:04;;;;;;;17.30;10.20;;;;;;;5.73;36.09;102452.84;5078366;28;20600;-61
2022/03/13 02:06:31;;;;;;;17.38;10.85;;;;;;;5.71;36.08;102444.19;5091663;28;20496;-61
2022/03/13 02:08:57;;;;;;;18.02;11.68;;;;;;;5.69;36.19;102446.81;5082372;28;20052;-61
2022/03/13 02:11:36;;;;;;;19.13;12.00;;;;;;;5.68;36.01;102444.22;5079662;28;20059;-61
2022/03/13 02:14:03;;;;;;;20.08;11.10;;;;;;;5.68;36.02;102431.19;5073103;28;20080;-61
2022/03/13 02:16:30;;;;;;;16.48;10.77;;;;;;;5.66;36.07;102436.44;5076116;28;20054;-61
2022/03/13 02:18:57;;;;;;;20.23;11.43;;;;;;;5.65;35.88;102437.28;5091299;28;20048;-61
2022/03/13 02:21:26;;;;;;;21.00;12.02;;;;;;;5.64;36.02;102434.72;5091183;28;20404;-61
2022/03/13 02:24:00;;;;;;;18.48;11.57;;;;;;;5.62;35.89;102434.69;5091259;28;20102;-61
2022/03/13 02:26:27;;;;;;;18.05;11.93;;;;;;;5.61;36.11;102439.94;5090846;28;20052;-61
2022/03/13 02:28:56;;;;;;;18.30;11.93;;;;;;;5.58;36.11;102430.41;5089584;28;20045;-61
2022/03/13 02:31:49;;;;;;;17.92;11.95;;;;;;;5.55;36.43;102431.28;5073528;28;20061;-61
2022/03/13 02:34:16;;;;;;;18.08;11.80;;;;;;;5.55;36.50;102430.44;5073392;28;20507;-61
2022/03/13 02:36:43;;;;;;;16.63;12.15;;;;;;;5.53;36.49;102429.56;5082032;28;20037;-61
2022/03/13 02:39:11;;;;;;;19.33;11.82;;;;;;;5.49;36.78;102427.88;5071310;28;20047;-61
2022/03/13 02:41:40;;;;;;;19.35;12.50;;;;;;;5.43;36.90;102427.94;5071191;28;20124;-61
2022/03/13 02:44:08;;;;;;;20.08;12.60;;;;;;;5.34;36.91;102426.25;5071364;28;20408;-61
2022/03/13 02:46:55;;;;;;;15.90;11.90;;;;;;;5.31;37.19;102428.91;5071104;28;20055;-61
2022/03/13 02:49:25;;;;;;;18.33;11.30;;;;;;;5.29;37.44;102425.44;5071100;28;20131;-61
2022/03/13 02:51:55;;;;;;;20.60;12.68;;;;;;;5.25;37.42;102431.53;5069873;28;20496;-61
2022/03/13 02:54:22;;;;;;;19.45;11.95;;;;;;;5.20;37.62;102427.19;5071610;28;20044;-61
2022/03/13 02:56:49;;;;;;;19.20;12.05;;;;;;;5.22;37.51;102419.41;5089769;28;20093;-61
2022/03/13 02:59:16;;;;;;;18.23;11.70;;;;;;;5.17;37.80;102422.03;5073762;28;20390;-61
2022/03/13 03:01:42;;;;;;;18.50;11.85;;;;;;;5.13;38.02;102433.34;5070695;28;20084;-61
2022/03/13 03:04:10;;;;;;;18.80;11.75;;;;;;;5.08;38.31;102424.72;5070761;28;20080;-62
2022/03/13 03:06:39;;;;;;;24.05;13.10;;;;;;;5.01;38.22;102420.41;5070439;28;20060;-61
2022/03/13 03:09:06;;;;;;;25.88;13.68;;;;;;;4.99;38.21;102427.34;5080183;28;20404;-61
2022/03/13 03:11:34;;;;;;;28.02;12.68;;;;;;;5.02;38.55;102428.19;5077907;28;20044;-61
2022/03/13 03:14:04;;;;;;;27.02;13.63;;;;;;;5.01;38.36;102423.00;5081795;28;20074;-61
2022/03/13 03:16:31;;;;;;;25.08;12.85;;;;;;;4.99;38.15;102422.16;5079160;28;20048;-61
2022/03/13 03:18:58;;;;;;;22.60;12.70;;;;;;;4.97;38.40;102416.09;5080217;28;20127;-61
2022/03/13 03:21:26;;;;;;;24.85;12.57;;;;;;;4.95;38.47;102417.84;5082992;28;20040;-61
2022/03/13 03:23:53;;;;;;;23.67;12.32;;;;;;;4.86;38.79;102417.03;5077943;28;20090;-61
2022/03/13 03:26:20;;;;;;;23.40;12.80;;;;;;;4.80;38.90;102414.47;5079187;28;20558;-61
2022/03/13 03:28:47;;;;;;;30.17;13.93;;;;;;;4.73;39.04;102416.22;5089320;28;20066;-61
2022/03/13 03:31:13;;;;;;;30.50;13.30;;;;;;;4.65;39.15;102418.00;5085127;28;20117;-61
2022/03/13 03:33:40;;;;;;;22.70;11.90;;;;;;;4.65;39.07;102424.94;5069919;28;20197;-61
2022/03/13 03:36:07;;;;;;;21.05;12.25;;;;;;;4.61;39.15;102420.63;5070416;28;20055;-61
2022/03/13 03:38:34;;;;;;;20.27;12.73;;;;;;;4.58;39.15;102426.69;5071401;28;20481;-61
2022/03/13 03:41:00;;;;;;;19.27;12.02;;;;;;;4.53;39.21;102415.44;5073984;28;20048;-61
2022/03/13 03:43:27;;;;;;;20.38;12.57;;;;;;;4.57;39.10;102424.97;5082753;28;20109;-61
2022/03/13 03:45:56;;;;;;;21.65;12.05;;;;;;;4.61;38.91;102420.63;5077741;28;20056;-61
2022/03/13 03:48:23;;;;;;;20.85;11.95;;;;;;;4.61;38.87;102410.22;5086615;28;20067;-61
2022/03/13 03:50:50;;;;;;;19.45;12.18;;;;;;;4.62;38.74;102410.22;5077509;28;20051;-61
2022/03/13 03:53:16;;;;;;;18.60;11.57;;;;;;;4.63;38.98;102416.28;5077669;28;20052;-61
2022/03/13 03:55:43;;;;;;;16.27;11.10;;;;;;;4.61;38.92;102421.50;5083843;28;20111;-61
2022/03/13 03:58:13;;;;;;;18.63;10.38;;;;;;;4.61;38.90;102420.63;5091409;28;20044;-61
2022/03/13 04:00:39;;;;;;;18.63;11.52;;;;;;;4.62;38.75;102406.75;5088638;28;20054;-61
2022/03/13 04:03:06;;;;;;;16.33;10.60;;;;;;;4.62;38.86;102406.75;5070293;28;20101;-60
2022/03/13 04:05:34;;;;;;;17.55;10.43;;;;;;;4.60;38.74;102405.88;5070281;28;20044;-61
2022/03/13 04:08:00;;;;;;;18.60;10.88;;;;;;;4.58;38.89;102418.88;5070581;28;20386;-61
2022/03/13 04:10:27;;;;;;;18.67;11.27;;;;;;;4.55;39.04;102414.56;5070575;28;20078;-61
2022/03/13 04:12:54;;;;;;;19.88;11.98;;;;;;;4.57;39.07;102396.34;5070298;28;20072;-61
2022/03/13 04:15:21;;;;;;;16.92;11.38;;;;;;;4.50;38.96;102405.94;5070707;28;20188;-61
2022/03/13 04:17:47;;;;;;;18.52;10.68;;;;;;;4.48;38.79;102386.91;5069971;28;20114;-61
2022/03/13 04:20:14;;;;;;;20.55;11.45;;;;;;;4.50;38.86;102389.47;5072373;28;20044;-61
2022/03/13 04:22:40;;;;;;;16.25;10.52;;;;;;;4.46;38.73;102387.78;5082861;28;20048;-61
2022/03/13 04:25:07;;;;;;;17.73;10.75;;;;;;;4.49;38.71;102399.00;5078204;28;20470;-61
2022/03/13 04:27:35;;;;;;;16.20;10.45;;;;;;;4.50;38.73;102399.88;5069536;28;20048;-61
2022/03/13 04:30:02;;;;;;;18.27;10.32;;;;;;;4.46;38.98;102400.78;5069608;28;20053;-61
2022/03/13 04:32:29;;;;;;;19.48;11.40;;;;;;;4.43;39.08;102392.97;5069843;28;20052;-61
2022/03/13 04:34:56;;;;;;;17.13;11.07;;;;;;;4.44;39.01;102394.69;5069677;28;20524;-61
2022/03/13 04:37:23;;;;;;;16.75;10.88;;;;;;;4.41;39.04;102396.44;5069471;28;20105;-61
2022/03/13 04:39:51;;;;;;;14.52;10.13;;;;;;;4.34;39.20;102394.75;5069516;28;20044;-62
2022/03/13 04:42:18;;;;;;;18.85;10.93;;;;;;;4.31;39.26;102407.75;5069531;28;20049;-61
2022/03/13 04:44:45;;;;;;;17.58;10.85;;;;;;;4.27;39.31;102399.94;5069313;28;20059;-61
2022/03/13 04:47:12;;;;;;;15.80;10.73;;;;;;;4.24;39.50;102401.72;5069437;28;20044;-61
2022/03/13 04:49:39;;;;;;;15.93;10.75;;;;;;;4.20;39.48;102397.41;5068987;28;20049;-61
2022/03/13 04:52:09;;;;;;;17.23;10.38;;;;;;;4.16;39.45;102403.44;5072907;28;20090;-61
2022/03/13 04:54:35;;;;;;;16.20;10.50;;;;;;;4.20;39.45;102409.50;5082755;28;20045;-61
2022/03/13 04:57:03;;;;;;;15.38;9.75;;;;;;;4.21;39.30;102409.50;5078391;28;20044;-61
2022/03/13 04:59:29;;;;;;;14.13;9.48;;;;;;;4.23;39.51;102406.91;5077642;28;20446;-61
2022/03/13 05:01:56;;;;;;;19.55;10.32;;;;;;;4.24;39.28;102406.91;5064890;28;20036;-61
2022/03/13 05:04:22;;;;;;;17.55;10.75;;;;;;;4.19;39.33;102413.84;5081460;28;20132;-61
2022/03/13 05:06:49;;;;;;;15.63;9.90;;;;;;;4.18;39.62;102419.91;5066795;28;20093;-61
2022/03/13 05:09:16;;;;;;;17.95;10.63;;;;;;;4.17;39.61;102425.13;5076700;28;20048;-61
2022/03/13 05:11:42;;;;;;;16.63;10.13;;;;;;;4.21;39.90;102421.63;5070393;28;20056;-61
2022/03/13 05:14:09;;;;;;;17.05;10.88;;;;;;;4.18;40.21;102425.09;5083960;28;20056;-61
2022/03/13 05:16:36;;;;;;;17.38;10.15;;;;;;;4.18;40.25;102419.06;5069290;28;20048;-61
2022/03/13 05:19:06;;;;;;;18.25;10.00;;;;;;;4.17;40.24;102430.31;5068556;28;20049;-62
2022/03/13 05:21:36;;;;;;;18.00;10.50;;;;;;;4.14;40.34;102433.78;5068963;28;20516;-61
2022/03/13 05:24:03;;;;;;;18.67;10.10;;;;;;;4.12;40.49;102440.72;5068845;28;20048;-61
2022/03/13 05:26:30;;;;;;;17.63;10.73;;;;;;;4.11;40.53;102438.13;5069084;28;20098;-61
2022/03/13 05:28:57;;;;;;;17.83;11.07;;;;;;;4.07;40.77;102434.66;5068722;28;20048;-61
2022/03/13 05:31:24;;;;;;;16.45;10.80;;;;;;;4.07;40.87;102430.31;5068621;28;20068;-61
2022/03/13 05:33:52;;;;;;;17.63;10.65;;;;;;;4.04;40.87;102439.88;5068570;28;20040;-61
2022/03/13 05:36:19;;;;;;;15.70;10.75;;;;;;;4.00;41.02;102435.53;5067518;28;20049;-61
2022/03/13 05:38:46;;;;;;;16.77;10.50;;;;;;;4.00;41.06;102443.31;5068317;28;20070;-61
2022/03/13 05:41:13;;;;;;;20.52;11.50;;;;;;;3.98;41.25;102439.88;5076788;28;20098;-61
2022/03/13 05:43:43;;;;;;;16.27;10.27;;;;;;;4.01;41.16;102437.25;5068318;28;20044;-61
2022/03/13 05:46:10;;;;;;;15.98;10.50;;;;;;;3.98;41.54;102440.72;5068516;28;20052;-62
2022/03/13 05:48:37;;;;;;;16.63;10.65;;;;;;;3.96;41.57;102441.59;5078921;28;20105;-61
2022/03/13 05:51:03;;;;;;;18.10;11.57;;;;;;;3.98;41.65;102443.31;5069930;28;20052;-61
2022/03/13 05:53:30;;;;;;;17.05;10.43;;;;;;;3.98;41.60;102448.53;5073149;28;20488;-61
2022/03/13 05:55:56;;;;;;;20.05;11.13;;;;;;;4.00;41.82;102453.72;5075129;28;20055;-61
2022/03/13 05:58:23;;;;;;;18.25;11.18;;;;;;;4.06;41.75;102461.50;5067873;28;20529;-61
2022/03/13 06:01:03;;;;;;;16.55;10.70;;;;;;;4.10;41.80;102460.63;5067012;28;20451;-61
2022/03/13 06:03:30;;;;;;;17.73;11.10;;;;;;;4.14;41.60;102462.38;5067863;28;20087;-61
2022/03/13 06:05:57;;;;;;;16.95;10.65;;;;;;;4.15;41.74;102460.63;5069322;28;20055;-61
2022/03/13 06:08:24;;;;;;;15.18;10.23;;;;;;;4.15;41.88;102464.09;5074955;28;20048;-61
2022/03/13 06:10:51;;;;;;;17.33;10.85;;;;;;;4.78;42.19;102462.16;5078484;28;20044;-61
2022/03/13 06:13:19;;;;;;;20.00;11.00;;;;;;;4.57;42.39;102462.25;5074788;28;20489;-61
2022/03/13 06:15:46;;;;;;;16.98;9.88;;;;;;;4.52;42.35;102469.19;5082570;28;20040;-61
2022/03/13 06:18:12;;;;;;;17.92;11.25;;;;;;;4.45;42.40;102464.03;5080122;28;20124;-62
2022/03/13 06:20:39;;;;;;;18.35;10.93;;;;;;;4.43;42.67;102474.41;5067696;28;20166;-61
2022/03/13 06:23:08;;;;;;;12.90;6.05;;;;;;;4.85;42.47;102476.84;5070228;28;20056;-60
2022/03/13 06:25:35;;;;;;;21.50;11.20;;;;;;;6.00;46.29;102469.13;5067577;28;20052;-64
2022/03/13 06:28:02;;;;;;;19.90;11.05;;;;;;;5.42;45.94;102473.06;5081472;28;20466;-64
2022/03/13 06:30:29;;;;;;;18.35;9.82;;;;;;;5.20;45.37;102479.25;5075528;28;20051;-64
2022/03/13 06:32:56;;;;;;;15.05;9.32;;;;;;;5.05;44.61;102468.94;5070838;28;20068;-62
2022/03/13 06:35:24;;;;;;;14.57;8.65;;;;;;;4.99;43.96;102467.25;5067453;28;20045;-62
2022/03/13 06:37:51;;;;;;;13.80;8.18;;;;;;;4.96;43.18;102469.00;5067221;28;20040;-61
2022/03/13 06:40:20;;;;;;;16.67;9.95;;;;;;;4.92;42.74;102475.09;5076219;28;20043;-62
2022/03/13 06:42:48;;;;;;;24.20;11.07;;;;;;;4.90;42.18;102486.38;5075037;28;20502;-62
2022/03/13 06:45:15;;;;;;;15.55;5.78;;;;;;;5.44;41.55;102474.78;5082771;28;20492;-61
2022/03/13 06:47:47;;;;;;;15.18;6.78;;;;;;;6.72;43.67;102487.47;5067601;28;20049;-62
2022/03/13 06:50:17;;;;;;;11.88;7.72;;;;;;;6.17;43.96;102487.22;5067961;28;20048;-62
2022/03/13 06:52:45;;;;;;;12.32;7.70;;;;;;;6.03;43.87;102484.72;5067753;28;20052;-61
2022/03/13 06:55:14;;;;;;;10.18;7.63;;;;;;;5.83;42.95;102493.56;5067206;28;20404;-60
2022/03/13 06:57:43;;;;;;;12.00;7.03;;;;;;;5.76;42.24;102488.44;5065171;28;20079;-60
2022/03/13 07:00:11;;;;;;;10.27;6.90;;;;;;;5.74;41.36;102493.66;5067734;28;20048;-60
2022/03/13 07:02:37;;;;;;;12.88;7.40;;;;;;;5.81;40.54;102491.84;5066180;28;20045;-60
2022/03/13 07:05:04;;;;;;;11.05;6.88;;;;;;;5.94;39.78;102490.88;5067565;28;20056;-60
2022/03/13 07:07:31;;;;;;;10.93;7.43;;;;;;;6.12;38.98;102499.41;5067712;28;20092;-60
2022/03/13 07:09:58;;;;;;;10.82;6.88;;;;;;;6.28;38.23;102493.19;5067865;28;20049;-60
2022/03/13 07:12:25;;;;;;;13.57;8.23;;;;;;;6.42;37.80;102494.78;5069149;28;20052;-61
2022/03/13 07:14:55;;;;;;;13.35;8.13;;;;;;;6.59;37.26;102498.06;5071514;28;20049;-60
2022/03/13 07:17:22;;;;;;;11.52;7.38;;;;;;;6.80;36.82;102491.72;5069246;28;20053;-61
2022/03/13 07:19:49;;;;;;;11.70;7.55;;;;;;;7.03;36.39;102499.28;5072068;28;20110;-60
2022/03/13 07:22:16;;;;;;;10.02;6.95;;;;;;;7.24;35.76;102497.22;5072114;28;20049;-61
2022/03/13 07:24:46;;;;;;;12.00;7.63;;;;;;;7.39;35.77;102497.88;5071878;28;20040;-61
2022/03/13 07:27:14;;;;;;;10.85;7.45;;;;;;;7.53;35.36;102506.41;5071320;28;20838;-61
2022/03/13 07:29:41;;;;;;;13.57;7.15;;;;;;;7.75;35.14;102500.81;5070641;28;20170;-60
2022/03/13 07:32:08;;;;;;;8.55;5.95;;;;;;;7.87;35.02;102495.38;5070778;28;20113;-61
2022/03/13 07:34:35;;;;;;;10.43;6.95;;;;;;;7.98;34.61;102496.06;5071686;28;20105;-61
2022/03/13 07:37:01;;;;;;;14.23;7.25;;;;;;;8.11;34.42;102498.47;5071730;28;20414;-60
2022/03/13 07:39:28;;;;;;;12.52;7.10;;;;;;;8.25;34.20;102504.31;5071942;28;20052;-61
2022/03/13 07:41:55;;;;;;;11.88;7.72;;;;;;;8.38;33.88;102497.09;5071634;28;20041;-61
2022/03/13 07:44:22;;;;;;;11.63;7.95;;;;;;;8.53;33.87;102497.72;5071919;28;20044;-61
2022/03/13 07:46:49;;;;;;;13.57;8.60;;;;;;;8.67;33.67;102503.53;5071311;28;20055;-61
2022/03/13 07:49:15;;;;;;;11.05;7.72;;;;;;;8.86;33.34;102509.25;5070276;28;20044;-61
2022/03/13 07:51:43;;;;;;;11.73;7.57;;;;;;;9.01;33.42;102507.22;5071953;28;20182;-62
2022/03/13 07:54:11;;;;;;;11.57;7.57;;;;;;;9.07;33.42;102502.69;5069901;28;20044;-60
2022/03/13 07:56:37;;;;;;;11.45;7.45;;;;;;;9.22;33.26;102501.50;5061636;28;20044;-59
2022/03/13 07:59:04;;;;;;;11.23;7.03;;;;;;;9.39;33.18;102495.84;5087504;28;20048;-60
2022/03/13 08:01:30;;;;;;;12.30;7.15;;;;;;;9.54;33.06;102502.50;5073477;28;20078;-60
2022/03/13 08:03:57;;;;;;;13.18;7.32;;;;;;;9.73;32.74;102494.19;5070662;28;20564;-61
2022/03/13 08:06:24;;;;;;;10.40;6.55;;;;;;;9.94;32.77;102498.03;5070604;28;20481;-61
2022/03/13 08:08:50;;;;;;;10.20;6.90;;;;;;;10.15;32.61;102498.38;5070742;28;20048;-62
2022/03/13 08:11:17;;;;;;;11.30;6.50;;;;;;;10.29;32.37;102494.47;5071004;28;20084;-60
2022/03/13 08:13:44;;;;;;;12.13;6.53;;;;;;;10.43;32.32;102494.13;5070115;28;20089;-68
2022/03/13 08:16:10;;;;;;;11.63;6.55;;;;;;;10.86;32.71;102493.81;5070181;28;20048;-61
2022/03/13 08:18:38;;;;;;;10.38;6.18;;;;;;;10.92;32.67;102497.09;5070519;28;20055;-61
2022/03/13 08:21:05;;;;;;;11.18;6.57;;;;;;;11.02;32.22;102496.81;5068255;28;20044;-61
2022/03/13 08:23:31;;;;;;;8.55;5.70;;;;;;;11.14;31.90;102488.56;5070121;28;20382;-61
2022/03/13 08:25:58;;;;;;;7.20;5.35;;;;;;;11.25;31.67;102490.88;5070306;28;20053;-61
2022/03/13 08:28:25;;;;;;;11.45;6.30;;;;;;;11.45;31.39;102487.59;5070791;28;20624;-61
2022/03/13 08:30:56;;;;;;;7.82;5.47;;;;;;;11.58;31.33;102491.56;5070511;28;20053;-61
2022/03/13 08:33:22;;;;;;;9.88;5.82;;;;;;;11.60;31.39;102481.88;5070597;28;20478;-61
2022/03/13 08:35:49;;;;;;;8.82;4.63;;;;;;;11.72;31.31;102488.47;5069330;28;20041;-61
2022/03/13 08:38:16;;;;;;;6.40;4.35;;;;;;;11.81;31.66;102489.06;5070720;28;20095;-61
2022/03/13 08:40:43;;;;;;;6.57;4.40;;;;;;;11.92;31.73;102490.44;5070472;28;20102;-61
2022/03/13 08:43:09;;;;;;;22.50;11.57;;;;;;;11.97;32.01;102492.91;5070486;28;20049;-61
2022/03/13 08:45:36;;;;;;;7.38;5.13;;;;;;;12.03;32.06;102489.22;5070547;28;20082;-61
2022/03/13 08:48:03;;;;;;;9.85;4.90;;;;;;;12.28;32.01;102494.50;5070306;28;20055;-61
2022/03/13 08:50:30;;;;;;;5.78;4.40;;;;;;;12.34;32.07;102493.41;5070509;28;20051;-61
2022/03/13 08:52:58;;;;;;;7.60;4.65;;;;;;;12.53;31.97;102493.59;5069421;28;20143;-61
2022/03/13 08:55:25;;;;;;;8.40;4.78;;;;;;;12.61;31.94;102490.69;5070573;28;20063;-62
2022/03/13 08:57:51;;;;;;;5.78;4.70;;;;;;;12.71;31.87;102492.06;5070233;28;20048;-61
2022/03/13 09:00:21;;;;;;;6.35;4.40;;;;;;;12.96;31.54;102486.69;5070079;28;20048;-62
2022/03/13 09:02:50;;;;;;;6.50;4.40;;;;;;;13.06;31.68;102472.28;5070135;28;20052;-62
2022/03/13 09:05:17;;;;;;;8.32;4.20;;;;;;;13.25;31.71;102479.44;5070003;28;20080;-62
2022/03/13 09:07:44;;;;;;;8.95;4.35;;;;;;;13.47;31.43;102483.88;5069500;28;20052;-61
2022/03/13 09:10:11;;;;;;;10.75;7.30;;;;;;;13.54;31.43;102486.19;5068836;28;20052;-61
2022/03/13 09:12:39;;;;;;;9.50;6.03;;;;;;;13.76;31.17;102484.44;5069663;28;20071;-60
2022/03/13 09:15:07;;;;;;;8.73;7.35;;;;;;;13.47;31.42;102492.66;5069852;28;20055;-61
2022/03/13 09:17:34;;;;;;;15.13;12.25;;;;;;;13.61;31.02;102489.44;5069584;28;20102;-61
2022/03/13 09:20:03;;;;;;;8.40;5.10;;;;;;;13.78;30.45;102488.75;5069362;28;20056;-61
2022/03/13 09:22:30;;;;;;;7.40;4.40;;;;;;;13.81;30.08;102491.22;5069490;28;20049;-61
2022/03/13 09:25:01;;;;;;;7.07;4.00;;;;;;;13.74;29.72;102478.38;5069309;28;20048;-60
2022/03/13 09:27:29;;;;;;;5.35;3.80;;;;;;;13.99;29.41;102483.47;5068239;28;20049;-61
2022/03/13 09:29:59;;;;;;;11.70;8.20;;;;;;;14.21;28.93;102476.31;5069297;28;20048;-61
2022/03/13 09:32:27;;;;;;;5.95;4.10;;;;;;;14.46;28.86;102477.00;5069518;28;20049;-61
2022/03/13 09:34:54;;;;;;;4.90;4.40;;;;;;;14.61;28.50;102478.09;5069244;28;20515;-61
2022/03/13 09:37:23;;;;;;;8.27;4.72;;;;;;;14.73;28.52;102471.41;5069232;28;20048;-61
2022/03/13 09:40:11;;;;;;;5.95;3.92;;;;;;;14.79;28.56;102471.13;5069607;28;20135;-61
2022/03/13 09:42:39;;;;;;;5.43;3.80;;;;;;;14.98;28.13;102465.81;5068176;28;20045;-61
2022/03/13 09:45:06;;;;;;;6.95;4.28;;;;;;;15.08;28.11;102466.25;5069211;28;20052;-61
2022/03/13 09:47:32;;;;;;;5.43;4.25;;;;;;;14.95;28.00;102473.91;5068924;28;20049;-61
2022/03/13 09:49:59;;;;;;;4.45;3.90;;;;;;;15.05;27.74;102461.97;5069166;28;20094;-65
2022/03/13 09:52:26;;;;;;;6.85;4.10;;;;;;;15.22;27.60;102453.22;5069029;28;20055;-61
2022/03/13 09:54:52;;;;;;;4.70;3.22;;;;;;;15.42;28.06;102451.38;5069113;28;20044;-61
2022/03/13 09:57:20;;;;;;;7.05;3.50;;;;;;;15.88;28.91;102457.00;5067679;28;20044;-64
2022/03/13 09:59:47;;;;;;;4.75;3.40;;;;;;;16.12;29.37;102449.56;5068964;28;20040;-62
2022/03/13 10:02:14;;;;;;;5.45;3.60;;;;;;;16.29;29.29;102450.47;5066196;28;20057;-60
2022/03/13 10:04:41;;;;;;;5.53;3.55;;;;;;;16.31;29.73;102449.44;5057037;28;20044;-60
2022/03/13 10:07:10;;;;;;;4.38;3.13;;;;;;;16.39;29.31;102457.00;5072828;28;20044;-60
2022/03/13 10:09:43;;;;;;;4.68;3.75;;;;;;;16.53;28.77;102442.13;5072659;28;20105;-60
2022/03/13 10:12:19;;;;;;;4.78;3.30;;;;;;;16.71;28.51;102438.47;5083359;28;20040;-59
2022/03/13 10:15:01;;;;;;;5.82;3.47;;;;;;;16.85;28.37;102443.00;5074051;28;20041;-62
2022/03/13 10:17:30;;;;;;;6.10;3.90;;;;;;;16.88;27.74;102434.88;5077062;28;20056;-60
2022/03/13 10:20:15;;;;;;;5.95;4.00;;;;;;;16.73;27.76;102441.03;5076915;28;20545;-60
2022/03/13 10:22:48;;;;;;;5.13;3.58;;;;;;;16.52;27.23;102440.41;5081023;28;20048;-61
2022/03/13 10:25:29;;;;;;;4.60;3.47;;;;;;;16.55;26.70;102432.31;5070312;28;20382;-66
2022/03/13 10:28:30;;;;;;;5.38;3.00;;;;;;;16.74;25.93;102433.00;5079326;28;20468;-67
2022/03/13 10:31:00;;;;;;;4.85;3.28;;;;;;;16.52;25.90;102437.75;5064142;28;20572;-65
2022/03/13 10:33:47;;;;;;;4.40;3.33;;;;;;;16.78;25.28;102431.03;5076068;28;20044;-61
2022/03/13 10:36:31;;;;;;;5.32;3.40;;;;;;;16.97;24.94;102422.91;5076359;28;20094;-61
2022/03/13 10:39:00;;;;;;;4.95;3.70;;;;;;;17.13;24.75;102423.75;5048233;28;20052;-68
2022/03/13 10:41:45;;;;;;;4.93;3.40;;;;;;;16.86;24.77;102420.00;5061129;28;20036;-60
2022/03/13 10:44:15;;;;;;;4.93;3.42;;;;;;;16.75;25.03;102420.63;5076272;28;20512;-66
2022/03/13 10:46:44;;;;;;;5.00;3.60;;;;;;;16.86;25.12;102412.03;5081985;28;20044;-66
2022/03/13 10:49:12;;;;;;;5.43;3.10;;;;;;;17.23;24.31;102421.44;5070678;28;20519;-61
2022/03/13 10:51:45;;;;;;;3.72;2.80;;;;;;;16.84;24.81;102414.78;5080099;28;20507;-67
2022/03/13 10:54:30;;;;;;;3.78;3.03;;;;;;;17.11;24.29;102412.38;5076076;28;20569;-67
2022/03/13 10:57:05;;;;;;;5.28;3.55;;;;;;;17.58;23.58;102409.69;5085204;28;20064;-65
2022/03/13 10:59:32;;;;;;;8.80;6.20;;;;;;;17.83;23.51;102410.88;5077549;28;20037;-59
2022/03/13 11:02:16;;;;;;;7.32;3.85;;;;;;;17.93;23.35;102407.56;5071811;28;20103;-60
2022/03/13 11:04:57;;;;;;;6.60;3.13;;;;;;;17.90;23.34;102396.25;5071139;28;20048;-61
2022/03/13 11:07:28;;;;;;;5.78;3.53;;;;;;;17.93;23.30;102396.06;5071900;28;20998;-62
2022/03/13 11:09:55;;;;;;;5.80;3.53;;;;;;;18.03;23.10;102386.63;5072363;28;20063;-66
2022/03/13 11:12:23;;;;;;;4.65;3.30;;;;;;;18.06;22.71;102398.84;5072229;28;20116;-61
2022/03/13 11:14:53;;;;;;;6.45;3.42;;;;;;;18.02;22.78;102400.84;5071859;28;20063;-68
2022/03/13 11:17:25;;;;;;;4.00;3.50;;;;;;;17.81;23.32;102395.00;5071492;28;20493;-61
2022/03/13 11:19:57;;;;;;;5.07;3.75;;;;;;;18.24;22.75;102389.72;5071938;28;20045;-61
2022/03/13 11:22:24;;;;;;;4.05;3.33;;;;;;;18.33;22.37;102380.31;5070660;28;20534;-62
2022/03/13 11:24:54;;;;;;;6.30;3.13;;;;;;;18.26;22.83;102379.84;5054466;28;20049;-60